Portada
METAR-TAF:

METAR-TAF

Aeropuertos :

Aeropuerto Internacional Eleftherios Venizelos

Atenas, Grecia

latitud: 37-56N, longitud: 023-56E, altitud: 94 m

Observación

El informe se hizo hace 29 minutos, a las 01:20 UTC
Viento 3 kt del oeste-noroeste
Temperatura 18°C
Humedad 77%
Presión 1014 hPa
Visibilidad 10 km o más
sin nubes por debajo de 1500 m y sin presencia de cumulonimbus.

METAR: LGAV 250120Z 30003KT CAVOK 18/14 Q1014 NOSIG

Hora: 04:49 (01:49 UTC)

Pronóstico

El informe se hizo hace 2 horas y 49 minutos, a las 23:00 UTC
Pronóstico válido del 25 a las 00 UTC al 25 a las 24 UTC
Viento 10 kt del norte-noreste
Visibilidad 10 km o más
Escasas nubes a una altura de 2500 ft
Evolucionando progresivamente
del 25 a las 04 UTC al 25 a las 06 UTC
Viento 22 kt del norte-noreste con ráfagas de 32 kt
Nubes dispersas a una altura de 2000 ft

TAF: LGAV 242300Z 2500/2524 02010KT 9999 FEW025 BECMG 2504/2506 02022G32KT SCT020

Observaciones y pronósticos meteorológicos de más de 4000 aeropuertos (mensajes METAR y TAF).

Los puntos amarillos y rojos representan las estaciones disponibles.

Ponga el ratón en el punto deseado para ver el nombre de la estación.

Haga clic para ver las observaciones y los pronósticos meteorológicos.

Para cambiar el mapa : haga clic en los botones verdes con una cruz de color negro para hacer un zoom, en el botón verde con un guión para alejar o en las flechas verdes para mapas adyacentes.


METAR-TAF: